createdAt,value
2023-04-26T00:00:10.167Z,7.40
2023-04-26T00:02:38.862Z,8.03
2023-04-26T00:05:09.659Z,8.30
2023-04-26T00:07:39.732Z,7.37
2023-04-26T00:10:12.319Z,7.37
2023-04-26T00:12:41.293Z,7.63
2023-04-26T00:15:11.111Z,7.53
2023-04-26T00:17:39.673Z,5.43
2023-04-26T00:20:10.575Z,7.60
2023-04-26T00:22:38.950Z,7.77
2023-04-26T00:25:10.571Z,11.60
2023-04-26T00:27:39.481Z,9.63
2023-04-26T00:30:09.590Z,9.73
2023-04-26T00:32:38.184Z,7.97
2023-04-26T00:35:07.800Z,8.33
2023-04-26T00:37:36.459Z,8.70
2023-04-26T00:40:06.377Z,5.73
2023-04-26T00:42:36.428Z,7.23
2023-04-26T00:45:05.288Z,6.90
2023-04-26T00:47:34.871Z,10.07
2023-04-26T00:50:04.896Z,12.43
2023-04-26T00:52:33.833Z,8.37
2023-04-26T00:55:02.760Z,9.63
2023-04-26T00:57:31.377Z,8.17
2023-04-26T01:00:01.257Z,9.17
2023-04-26T01:02:30.213Z,6.67
2023-04-26T01:04:58.751Z,7.67
2023-04-26T01:07:27.386Z,7.10
2023-04-26T01:09:56.876Z,7.73
2023-04-26T01:12:25.903Z,7.83
2023-04-26T01:14:55.430Z,9.47
2023-04-26T01:17:26.361Z,11.87
2023-04-26T01:19:55.097Z,8.77
2023-04-26T01:22:23.680Z,8.03
2023-04-26T01:24:56.552Z,8.60
2023-04-26T01:27:25.137Z,6.70
2023-04-26T01:29:54.457Z,8.67
2023-04-26T01:32:22.976Z,9.57
2023-04-26T01:34:51.413Z,9.90
2023-04-26T01:37:19.902Z,10.47
2023-04-26T01:39:48.435Z,9.77
2023-04-26T01:42:18.660Z,10.77
2023-04-26T01:44:47.300Z,9.00
2023-04-26T01:47:16.175Z,11.77
2023-04-26T01:49:44.681Z,8.17
2023-04-26T01:52:13.234Z,8.33
2023-04-26T01:54:41.798Z,8.43
2023-04-26T01:57:10.526Z,9.37
2023-04-26T01:59:40.881Z,13.83
2023-04-26T02:02:09.797Z,9.57
2023-04-26T02:04:38.844Z,12.67
2023-04-26T02:07:07.310Z,10.37
2023-04-26T02:09:36.111Z,10.40
2023-04-26T02:12:05.101Z,7.70
2023-04-26T02:14:33.858Z,10.77
2023-04-26T02:17:04.956Z,10.47
2023-04-26T02:19:33.714Z,13.07
2023-04-26T02:22:02.428Z,11.03
2023-04-26T02:24:33.062Z,7.73
2023-04-26T02:27:04.385Z,8.53
2023-04-26T02:29:43.873Z,8.70
2023-04-26T02:32:15.589Z,10.33
2023-04-26T02:34:45.110Z,10.27
2023-04-26T02:37:13.683Z,9.40
2023-04-26T02:39:42.085Z,11.57
2023-04-26T02:42:11.775Z,12.53
2023-04-26T02:44:40.627Z,13.50
2023-04-26T02:47:09.466Z,12.20
2023-04-26T02:49:39.611Z,11.70
2023-04-26T02:52:08.377Z,10.87
2023-04-26T02:54:37.202Z,12.13
2023-04-26T02:57:06.060Z,10.70
2023-04-26T02:59:34.884Z,12.60
2023-04-26T03:02:03.415Z,9.53
2023-04-26T03:04:36.204Z,10.77
2023-04-26T03:07:07.056Z,10.73
2023-04-26T03:09:38.569Z,14.47
2023-04-26T03:12:11.369Z,12.13
2023-04-26T03:14:39.765Z,12.97
2023-04-26T03:17:08.792Z,13.37
2023-04-26T03:19:37.272Z,11.67
2023-04-26T03:22:07.737Z,11.90
2023-04-26T03:24:36.266Z,14.03
2023-04-26T03:27:04.558Z,13.90
2023-04-26T03:29:33.178Z,13.13
2023-04-26T03:32:01.668Z,13.27
2023-04-26T03:34:30.258Z,10.97
2023-04-26T03:36:59.359Z,12.90
2023-04-26T03:39:29.504Z,12.93
2023-04-26T03:41:59.558Z,12.40
2023-04-26T03:44:29.883Z,11.00
2023-04-26T03:46:59.684Z,12.63
2023-04-26T03:49:28.165Z,10.73
2023-04-26T03:51:57.318Z,12.77
2023-04-26T03:54:26.126Z,12.67
2023-04-26T03:56:56.176Z,13.47
2023-04-26T03:59:24.629Z,14.70
2023-04-26T04:01:53.388Z,15.70
2023-04-26T04:04:22.316Z,18.60
2023-04-26T04:06:51.026Z,13.10
2023-04-26T04:09:20.007Z,18.27
2023-04-26T04:11:48.742Z,17.77
2023-04-26T04:14:19.020Z,13.13
2023-04-26T04:16:47.980Z,14.53
2023-04-26T04:19:17.008Z,15.70
2023-04-26T04:21:45.742Z,13.77
2023-04-26T04:24:14.270Z,14.37
2023-04-26T04:26:42.780Z,15.27
2023-04-26T04:29:11.397Z,17.77
2023-04-26T04:31:41.925Z,17.60
2023-04-26T04:34:10.507Z,14.27
2023-04-26T04:36:40.871Z,14.93
2023-04-26T04:39:14.226Z,17.60
2023-04-26T04:41:47.810Z,12.13
2023-04-26T04:44:17.166Z,14.40
2023-04-26T04:46:47.797Z,12.93
2023-04-26T04:49:16.647Z,15.03
2023-04-26T04:51:45.220Z,15.20
2023-04-26T04:54:14.201Z,17.17
2023-04-26T04:56:43.096Z,15.57
2023-04-26T04:59:11.590Z,16.53
2023-04-26T05:01:40.459Z,14.43
2023-04-26T05:04:10.994Z,17.47
2023-04-26T05:06:40.084Z,16.30
2023-04-26T05:09:08.951Z,14.83
2023-04-26T05:11:37.765Z,14.93
2023-04-26T05:14:06.330Z,17.60
2023-04-26T05:16:34.920Z,14.53
2023-04-26T05:19:03.833Z,14.50
2023-04-26T05:21:33.902Z,16.57
2023-04-26T05:24:02.737Z,15.30
2023-04-26T05:26:31.270Z,16.07
2023-04-26T05:28:59.606Z,13.57
2023-04-26T05:31:28.696Z,15.93
2023-04-26T05:33:57.413Z,16.77
2023-04-26T05:36:29.163Z,19.07
2023-04-26T05:39:00.191Z,17.40
2023-04-26T05:41:28.978Z,12.83
2023-04-26T05:43:57.428Z,16.87
2023-04-26T05:46:26.152Z,14.50
2023-04-26T05:48:54.671Z,16.70
2023-04-26T05:51:23.530Z,12.60
2023-04-26T05:53:52.730Z,16.00
2023-04-26T05:56:25.381Z,15.17
2023-04-26T05:58:54.442Z,16.03
2023-04-26T06:01:23.057Z,14.87
2023-04-26T06:03:54.379Z,15.37
2023-04-26T06:06:24.809Z,17.63
2023-04-26T06:08:53.699Z,13.17
2023-04-26T06:11:23.709Z,14.10
2023-04-26T06:13:52.787Z,14.37
2023-04-26T06:16:24.220Z,13.20
2023-04-26T06:18:52.868Z,14.20
2023-04-26T06:21:21.625Z,16.17
2023-04-26T06:23:50.593Z,12.60
2023-04-26T06:26:19.685Z,17.07
2023-04-26T06:28:50.162Z,19.73
2023-04-26T06:31:20.318Z,14.93
2023-04-26T06:33:49.481Z,13.97
2023-04-26T06:36:18.257Z,16.77
2023-04-26T06:38:46.770Z,13.40
2023-04-26T06:41:16.875Z,11.23
2023-04-26T06:43:46.956Z,15.67
2023-04-26T06:46:17.033Z,12.23
2023-04-26T06:48:45.803Z,6.67
2023-04-26T06:51:14.666Z,10.00
2023-04-26T06:53:43.750Z,7.33
2023-04-26T06:56:12.564Z,14.50
2023-04-26T06:58:41.425Z,10.63
2023-04-26T07:01:10.429Z,9.70
2023-04-26T07:03:43.070Z,8.20
2023-04-26T07:06:12.947Z,12.43
2023-04-26T07:08:41.600Z,12.07
2023-04-26T07:11:11.750Z,13.13
2023-04-26T07:13:40.501Z,15.87
2023-04-26T07:16:09.078Z,13.40
2023-04-26T07:18:38.080Z,12.60
2023-04-26T07:21:08.827Z,11.20
2023-04-26T07:23:37.513Z,9.87
2023-04-26T07:26:06.541Z,10.40
2023-04-26T07:28:35.238Z,9.20
2023-04-26T07:31:06.619Z,8.03
2023-04-26T07:33:37.515Z,14.13
2023-04-26T07:36:08.724Z,9.63
2023-04-26T07:38:37.316Z,12.63
2023-04-26T07:41:06.118Z,11.93
2023-04-26T07:43:34.575Z,9.80
2023-04-26T07:46:03.466Z,12.00
2023-04-26T07:48:32.269Z,12.57
2023-04-26T07:51:10.900Z,11.90
2023-04-26T07:53:39.708Z,10.70
2023-04-26T07:56:11.444Z,8.70
2023-04-26T07:58:41.061Z,10.27
2023-04-26T08:01:10.104Z,9.23
2023-04-26T08:03:38.708Z,11.43
2023-04-26T08:06:09.936Z,10.23
2023-04-26T08:08:45.065Z,10.50
2023-04-26T08:11:14.785Z,10.20
2023-04-26T08:13:44.395Z,10.90
2023-04-26T08:16:13.557Z,9.67
2023-04-26T08:18:44.661Z,9.83
2023-04-26T08:21:14.601Z,8.57
2023-04-26T08:23:45.065Z,9.07
2023-04-26T08:26:13.942Z,8.20
2023-04-26T08:28:42.527Z,9.03
2023-04-26T08:31:11.504Z,8.40
2023-04-26T08:33:40.415Z,7.27
2023-04-26T08:36:09.375Z,8.50
2023-04-26T08:38:37.808Z,9.30
2023-04-26T08:41:10.053Z,11.27
2023-04-26T08:43:40.324Z,5.87
2023-04-26T08:46:14.007Z,7.90
2023-04-26T08:48:42.870Z,5.93
2023-04-26T08:51:14.820Z,7.70
2023-04-26T08:53:44.198Z,6.67
2023-04-26T08:56:14.445Z,8.27
2023-04-26T08:58:43.420Z,8.23
2023-04-26T09:01:16.804Z,7.80
2023-04-26T09:03:45.683Z,5.83
2023-04-26T09:06:14.884Z,7.57
2023-04-26T09:08:45.118Z,4.33
2023-04-26T09:11:15.372Z,7.87
2023-04-26T09:13:44.214Z,6.00
2023-04-26T09:16:13.153Z,5.30
2023-04-26T09:18:55.110Z,6.03
2023-04-26T09:21:24.028Z,5.13
2023-04-26T09:23:59.478Z,5.10
2023-04-26T09:26:29.075Z,5.80
2023-04-26T09:29:13.257Z,5.20
2023-04-26T09:31:43.392Z,5.67
2023-04-26T09:34:12.857Z,5.77
2023-04-26T09:36:52.225Z,7.63
2023-04-26T09:39:33.824Z,6.27
2023-04-26T09:42:04.678Z,3.97
2023-04-26T09:44:35.646Z,5.47
2023-04-26T09:47:06.405Z,7.70
2023-04-26T09:49:44.901Z,5.87
2023-04-26T09:52:13.527Z,5.53
2023-04-26T09:54:55.519Z,6.60
2023-04-26T09:57:25.724Z,7.60
2023-04-26T09:59:56.800Z,5.33
2023-04-26T10:02:27.533Z,3.87
2023-04-26T10:04:57.949Z,5.17
2023-04-26T10:07:28.576Z,4.60
2023-04-26T10:09:59.191Z,7.47
2023-04-26T10:12:31.197Z,6.57
2023-04-26T10:15:00.011Z,4.87
2023-04-26T10:17:28.875Z,5.43
2023-04-26T10:20:00.448Z,5.70
2023-04-26T10:22:34.036Z,6.80
2023-04-26T10:25:02.716Z,5.13
2023-04-26T10:28:07.963Z,4.97
2023-04-26T10:30:56.148Z,4.07
2023-04-26T10:33:26.698Z,3.27
2023-04-26T10:36:14.578Z,5.10
2023-04-26T10:38:44.467Z,5.90
2023-04-26T10:41:33.269Z,6.13
2023-04-26T10:44:39.549Z,4.63
2023-04-26T10:47:09.691Z,3.57
2023-04-26T10:49:48.724Z,2.50
2023-04-26T10:52:20.160Z,2.90
2023-04-26T10:54:56.863Z,3.37
2023-04-26T10:57:47.001Z,4.30
2023-04-26T11:00:32.081Z,4.80
2023-04-26T11:03:13.312Z,4.60
2023-04-26T11:05:55.777Z,5.10
2023-04-26T11:08:32.159Z,7.40
2023-04-26T11:11:09.814Z,4.27
2023-04-26T11:13:39.696Z,5.63
2023-04-26T11:16:12.633Z,6.87
2023-04-26T11:18:42.571Z,6.13
2023-04-26T11:21:13.152Z,5.17
2023-04-26T11:23:42.676Z,5.93
2023-04-26T11:26:11.520Z,5.03
2023-04-26T11:28:41.554Z,6.43
2023-04-26T11:31:12.108Z,6.07
2023-04-26T11:33:43.381Z,5.37
2023-04-26T11:36:11.920Z,4.87
2023-04-26T11:38:40.745Z,5.20
2023-04-26T11:41:10.608Z,4.73
2023-04-26T11:43:42.330Z,4.90
2023-04-26T11:46:12.767Z,7.83
2023-04-26T11:48:42.683Z,6.07
2023-04-26T11:51:12.120Z,3.63
2023-04-26T11:53:42.132Z,3.40
2023-04-26T11:56:18.252Z,4.97
2023-04-26T11:58:47.898Z,5.67
2023-04-26T12:01:24.519Z,5.77
2023-04-26T12:03:54.512Z,4.47
2023-04-26T12:06:31.051Z,4.87
2023-04-26T12:09:00.247Z,5.27
2023-04-26T12:11:28.835Z,4.63
2023-04-26T12:14:01.696Z,5.47
2023-04-26T12:16:31.906Z,5.97
2023-04-26T12:19:00.536Z,5.23
2023-04-26T12:21:30.845Z,5.20
2023-04-26T12:23:59.854Z,6.13
2023-04-26T12:26:45.289Z,6.40
2023-04-26T12:29:13.950Z,4.83
2023-04-26T12:31:44.843Z,7.60
2023-04-26T12:34:13.728Z,4.13
2023-04-26T12:36:44.533Z,5.80
2023-04-26T12:39:13.756Z,7.77
2023-04-26T12:41:42.769Z,6.57
2023-04-26T12:44:12.107Z,5.17
2023-04-26T12:46:40.755Z,3.57
2023-04-26T12:49:11.265Z,4.93
2023-04-26T12:51:40.942Z,5.13
2023-04-26T12:54:10.438Z,4.57
2023-04-26T12:56:44.118Z,5.57
2023-04-26T12:59:13.150Z,4.60
2023-04-26T13:01:41.658Z,5.23
2023-04-26T13:04:11.935Z,4.93
2023-04-26T13:06:40.676Z,5.40
2023-04-26T13:09:09.837Z,5.17
2023-04-26T13:11:38.834Z,3.13
2023-04-26T13:14:08.158Z,7.23
2023-04-26T13:16:36.904Z,4.97
2023-04-26T13:19:07.193Z,5.30
2023-04-26T13:21:37.072Z,3.10
2023-04-26T13:24:06.271Z,8.03
2023-04-26T13:26:34.967Z,5.77
2023-04-26T13:29:04.511Z,11.10
2023-04-26T13:31:33.155Z,4.47
2023-04-26T13:34:01.574Z,4.70
2023-04-26T13:36:30.402Z,4.23
2023-04-26T13:39:00.751Z,5.90
2023-04-26T13:41:33.866Z,4.83
2023-04-26T13:44:02.634Z,6.33
2023-04-26T13:46:31.264Z,5.27
2023-04-26T13:49:00.255Z,6.47
2023-04-26T13:51:31.057Z,5.17
2023-04-26T13:54:01.389Z,4.07
2023-04-26T13:56:29.937Z,3.77
2023-04-26T13:58:58.650Z,5.10
2023-04-26T14:01:27.843Z,5.20
2023-04-26T14:03:57.154Z,7.77
2023-04-26T14:06:25.746Z,5.43
2023-04-26T14:08:54.165Z,5.50
2023-04-26T14:11:24.806Z,4.67
2023-04-26T14:13:56.078Z,5.47
2023-04-26T14:16:25.087Z,5.07
2023-04-26T14:18:53.735Z,5.00
2023-04-26T14:21:22.382Z,12.70
2023-04-26T14:23:51.615Z,7.27
2023-04-26T14:26:20.484Z,4.80
2023-04-26T14:28:51.193Z,6.30
2023-04-26T14:31:20.110Z,6.60
2023-04-26T14:33:48.616Z,5.50
2023-04-26T14:36:17.472Z,5.47
2023-04-26T14:38:47.497Z,5.57
2023-04-26T14:41:16.879Z,6.07
2023-04-26T14:43:46.119Z,6.73
2023-04-26T14:46:17.102Z,4.67
2023-04-26T14:48:47.015Z,6.43
2023-04-26T14:51:15.902Z,5.17
2023-04-26T14:53:44.112Z,5.13
2023-04-26T14:56:12.908Z,6.20
2023-04-26T14:58:41.701Z,6.17
2023-04-26T15:01:10.935Z,5.03
2023-04-26T15:03:41.965Z,4.47
2023-04-26T15:06:11.291Z,7.40
2023-04-26T15:08:40.066Z,3.93
2023-04-26T15:11:08.901Z,8.60
2023-04-26T15:13:37.878Z,3.87
2023-04-26T15:16:08.226Z,5.53
2023-04-26T15:18:36.943Z,7.40
2023-04-26T15:21:07.104Z,5.93
2023-04-26T15:23:35.647Z,5.70
2023-04-26T15:26:04.523Z,3.93
2023-04-26T15:28:33.123Z,11.23
2023-04-26T15:31:05.531Z,6.30
2023-04-26T15:33:37.328Z,3.87
2023-04-26T15:36:09.396Z,4.37
2023-04-26T15:38:45.029Z,4.17
2023-04-26T15:41:13.810Z,5.20
2023-04-26T15:43:42.664Z,6.07
2023-04-26T15:46:14.529Z,4.57
2023-04-26T15:48:43.342Z,5.47
2023-04-26T15:51:13.450Z,7.50
2023-04-26T15:53:44.069Z,6.30
2023-04-26T15:56:16.643Z,6.23
2023-04-26T15:58:46.242Z,5.40
2023-04-26T16:01:15.232Z,8.87
2023-04-26T16:03:47.214Z,6.77
2023-04-26T16:06:18.451Z,6.67
2023-04-26T16:08:47.368Z,5.47
2023-04-26T16:11:15.962Z,5.27
2023-04-26T16:13:44.920Z,6.93
2023-04-26T16:16:13.863Z,7.13
2023-04-26T16:18:44.409Z,7.03
2023-04-26T16:21:13.499Z,6.73
2023-04-26T16:23:43.613Z,7.40
2023-04-26T16:26:14.422Z,5.03
2023-04-26T16:28:43.444Z,5.13
2023-04-26T16:31:13.372Z,7.50
2023-04-26T16:33:42.172Z,6.87
2023-04-26T16:36:10.957Z,4.53
2023-04-26T16:38:39.701Z,5.63
2023-04-26T16:41:10.506Z,6.43
2023-04-26T16:43:39.034Z,6.70
2023-04-26T16:46:09.004Z,5.83
2023-04-26T16:48:39.795Z,4.67
2023-04-26T16:51:08.957Z,6.90
2023-04-26T16:53:38.005Z,7.47
2023-04-26T16:56:07.515Z,4.50
2023-04-26T16:58:37.262Z,5.57
2023-04-26T17:01:06.170Z,5.83
2023-04-26T17:03:35.216Z,4.77
2023-04-26T17:06:04.425Z,6.47
2023-04-26T17:08:33.300Z,4.73
2023-04-26T17:11:02.143Z,9.40
2023-04-26T17:13:33.465Z,8.20
2023-04-26T17:16:05.765Z,4.97
2023-04-26T17:18:36.671Z,10.00
2023-04-26T17:21:05.706Z,6.93
2023-04-26T17:23:36.875Z,6.17
2023-04-26T17:26:05.734Z,6.27
2023-04-26T17:28:34.552Z,9.10
2023-04-26T17:31:04.528Z,5.83
2023-04-26T17:33:33.452Z,5.90
2023-04-26T17:36:02.865Z,7.63
2023-04-26T17:38:31.801Z,6.83
2023-04-26T17:41:01.692Z,8.17
2023-04-26T17:43:31.409Z,8.13
2023-04-26T17:46:03.592Z,4.63
2023-04-26T17:48:33.690Z,6.93
2023-04-26T17:51:02.254Z,5.47
2023-04-26T17:53:31.132Z,9.23
2023-04-26T17:56:02.505Z,5.90
2023-04-26T17:58:31.300Z,6.37
2023-04-26T18:00:59.926Z,8.20
2023-04-26T18:03:32.059Z,6.33
2023-04-26T18:06:03.800Z,7.97
2023-04-26T18:08:32.472Z,7.50
2023-04-26T18:11:01.533Z,6.07
2023-04-26T18:13:30.286Z,6.83
2023-04-26T18:15:59.000Z,7.00
2023-04-26T18:18:28.198Z,5.43
2023-04-26T18:20:57.086Z,6.13
2023-04-26T18:23:27.941Z,8.27
2023-04-26T18:25:57.272Z,7.57
2023-04-26T18:28:27.068Z,6.83
2023-04-26T18:30:59.014Z,8.70
2023-04-26T18:33:28.153Z,6.87
2023-04-26T18:35:57.055Z,6.60
2023-04-26T18:38:27.089Z,5.97
2023-04-26T18:40:55.632Z,8.47
2023-04-26T18:43:24.834Z,6.23
2023-04-26T18:45:53.983Z,6.30
2023-04-26T18:48:22.837Z,6.27
2023-04-26T18:50:54.476Z,6.83
2023-04-26T18:53:23.927Z,6.67
2023-04-26T18:55:58.662Z,9.67
2023-04-26T18:58:29.929Z,5.40
2023-04-26T19:00:58.784Z,8.03
2023-04-26T19:03:27.899Z,6.37
2023-04-26T19:05:56.749Z,5.70
2023-04-26T19:08:27.510Z,7.70
2023-04-26T19:10:57.798Z,7.07
2023-04-26T19:13:26.604Z,6.87
2023-04-26T19:15:55.582Z,7.43
2023-04-26T19:18:24.467Z,5.53
2023-04-26T19:20:53.174Z,8.37
2023-04-26T19:23:22.023Z,6.60
2023-04-26T19:25:50.548Z,7.77
2023-04-26T19:28:21.024Z,6.13
2023-04-26T19:30:49.625Z,7.40
2023-04-26T19:33:18.149Z,7.03
2023-04-26T19:35:47.100Z,7.73
2023-04-26T19:38:16.876Z,7.20
2023-04-26T19:40:46.122Z,5.70
2023-04-26T19:43:14.946Z,7.20
2023-04-26T19:45:45.100Z,6.13
2023-04-26T19:48:13.869Z,7.20
2023-04-26T19:50:43.783Z,5.77
2023-04-26T19:53:14.870Z,7.63
2023-04-26T19:55:44.002Z,6.77
2023-04-26T19:58:12.988Z,6.30
2023-04-26T20:00:42.317Z,7.57
2023-04-26T20:03:12.695Z,8.33
2023-04-26T20:05:41.610Z,6.23
2023-04-26T20:08:10.600Z,8.10
2023-04-26T20:10:39.624Z,6.17
2023-04-26T20:13:08.646Z,6.40
2023-04-26T20:15:37.428Z,5.47
2023-04-26T20:18:06.465Z,8.33
2023-04-26T20:20:37.190Z,5.83
2023-04-26T20:23:05.689Z,8.60
2023-04-26T20:25:34.492Z,9.10
2023-04-26T20:28:04.611Z,5.90
2023-04-26T20:30:34.027Z,5.80
2023-04-26T20:33:02.767Z,7.57
2023-04-26T20:35:31.124Z,7.77
2023-04-26T20:38:01.619Z,7.50
2023-04-26T20:40:30.273Z,4.43
2023-04-26T20:42:59.172Z,7.90
2023-04-26T20:45:27.844Z,6.13
2023-04-26T20:47:56.644Z,5.83
2023-04-26T20:50:25.954Z,6.40
2023-04-26T20:52:54.801Z,4.50
2023-04-26T20:55:25.221Z,9.20
2023-04-26T20:57:53.856Z,6.10
2023-04-26T21:00:22.774Z,6.17
2023-04-26T21:02:51.383Z,7.13
2023-04-26T21:05:19.984Z,6.87
2023-04-26T21:07:48.765Z,7.37
2023-04-26T21:10:17.310Z,7.33
2023-04-26T21:12:47.596Z,5.83
2023-04-26T21:15:16.242Z,6.40
2023-04-26T21:17:44.668Z,5.87
2023-04-26T21:20:13.682Z,6.27
2023-04-26T21:22:42.318Z,6.37
2023-04-26T21:25:13.642Z,6.57
2023-04-26T21:27:42.441Z,8.87
2023-04-26T21:30:14.374Z,7.57
2023-04-26T21:32:42.908Z,7.00
2023-04-26T21:35:12.859Z,6.00
2023-04-26T21:37:41.398Z,6.83
2023-04-26T21:40:10.980Z,5.67
2023-04-26T21:42:39.678Z,4.47
2023-04-26T21:45:09.948Z,6.50
2023-04-26T21:47:40.458Z,5.40
2023-04-26T21:50:09.474Z,5.43
2023-04-26T21:52:38.028Z,7.03
2023-04-26T21:55:07.434Z,7.70
2023-04-26T21:57:35.954Z,6.20
2023-04-26T22:00:07.267Z,5.23
2023-04-26T22:02:37.256Z,10.00
2023-04-26T22:05:08.244Z,8.13
2023-04-26T22:07:37.934Z,7.57
2023-04-26T22:10:07.266Z,6.63
2023-04-26T22:12:35.887Z,7.33
2023-04-26T22:15:04.748Z,7.17
2023-04-26T22:17:33.818Z,6.07
2023-04-26T22:20:02.435Z,9.03
2023-04-26T22:22:32.695Z,6.57
2023-04-26T22:25:01.702Z,7.10
2023-04-26T22:27:30.251Z,9.20
2023-04-26T22:30:06.302Z,9.73
2023-04-26T22:32:41.253Z,6.63
2023-04-26T22:35:10.134Z,8.03
2023-04-26T22:37:40.007Z,8.40
2023-04-26T22:40:11.506Z,10.40
2023-04-26T22:42:40.024Z,5.70
2023-04-26T22:45:10.823Z,6.50
2023-04-26T22:47:39.544Z,6.17
2023-04-26T22:50:09.542Z,8.30
2023-04-26T22:52:39.816Z,5.80
2023-04-26T22:55:09.713Z,7.67
2023-04-26T22:57:38.581Z,10.00
2023-04-26T23:00:10.119Z,6.47
2023-04-26T23:02:39.209Z,6.07
2023-04-26T23:05:10.575Z,8.23
2023-04-26T23:07:41.337Z,7.63
2023-04-26T23:10:10.882Z,7.20
2023-04-26T23:12:40.733Z,6.30
2023-04-26T23:15:10.765Z,6.77
2023-04-26T23:17:41.746Z,7.27
2023-04-26T23:20:14.012Z,5.10
2023-04-26T23:22:44.746Z,5.77
2023-04-26T23:25:13.277Z,9.10
2023-04-26T23:27:41.926Z,6.37
2023-04-26T23:30:11.604Z,7.07
2023-04-26T23:32:40.385Z,6.43
2023-04-26T23:35:10.054Z,7.90
2023-04-26T23:37:38.745Z,6.80
2023-04-26T23:40:10.757Z,8.53
2023-04-26T23:42:39.535Z,6.63
2023-04-26T23:45:09.972Z,4.93
2023-04-26T23:47:38.405Z,6.57
2023-04-26T23:50:08.343Z,6.30
2023-04-26T23:52:37.728Z,5.37
2023-04-26T23:55:09.523Z,5.67
2023-04-26T23:57:38.084Z,6.33
